createdAt,value
2018-08-23T00:01:31.502Z,85.70
2018-08-23T00:04:10.187Z,84.90
2018-08-23T00:06:46.647Z,85.30
2018-08-23T00:09:15.746Z,85.80
2018-08-23T00:11:46.193Z,85.10
2018-08-23T00:14:16.078Z,83.30
2018-08-23T00:16:46.351Z,84.10
2018-08-23T00:19:16.341Z,84.80
2018-08-23T00:21:48.836Z,84.70
2018-08-23T00:24:24.542Z,85.40
2018-08-23T00:26:58.104Z,86.70
2018-08-23T00:29:31.539Z,86.40
2018-08-23T00:32:04.743Z,86.10
2018-08-23T00:34:35.653Z,86.60
2018-08-23T00:37:05.405Z,85.40
2018-08-23T00:39:34.511Z,85.80
2018-08-23T00:42:05.742Z,84.00
2018-08-23T00:44:51.735Z,84.90
2018-08-23T00:47:23.082Z,85.50
2018-08-23T00:49:52.117Z,85.70
2018-08-23T00:52:30.842Z,87.30
2018-08-23T00:55:10.756Z,86.10
2018-08-23T00:57:39.786Z,85.40
2018-08-23T01:00:08.862Z,86.60
2018-08-23T01:02:37.958Z,87.90
2018-08-23T01:05:07.046Z,89.80
2018-08-23T01:07:36.145Z,85.80
2018-08-23T01:10:05.238Z,85.10
2018-08-23T01:12:44.530Z,84.40
2018-08-23T01:15:13.597Z,85.50
2018-08-23T01:17:42.680Z,86.70
2018-08-23T01:20:11.754Z,85.80
2018-08-23T01:22:51.028Z,84.20
2018-08-23T01:25:20.094Z,86.90
2018-08-23T01:27:49.193Z,86.80
2018-08-23T01:30:18.201Z,86.10
2018-08-23T01:32:47.278Z,85.00
2018-08-23T01:35:16.372Z,86.40
2018-08-23T01:37:45.469Z,86.30
2018-08-23T01:40:14.535Z,86.80
2018-08-23T01:42:43.605Z,84.20
2018-08-23T01:45:12.669Z,84.40
2018-08-23T01:47:47.084Z,84.40
2018-08-23T01:50:16.115Z,83.60
2018-08-23T01:52:50.505Z,87.20
2018-08-23T01:55:20.369Z,84.90
2018-08-23T01:57:49.881Z,85.50
2018-08-23T02:00:22.225Z,87.40
2018-08-23T02:02:51.269Z,85.40
2018-08-23T02:05:20.327Z,85.90
2018-08-23T02:07:49.457Z,86.60
2018-08-23T02:10:18.600Z,87.00
2018-08-23T02:12:52.509Z,85.30
2018-08-23T02:15:22.357Z,85.10
2018-08-23T02:17:56.363Z,86.80
2018-08-23T02:20:26.477Z,86.60
2018-08-23T02:22:56.209Z,86.30
2018-08-23T02:25:25.481Z,87.10
2018-08-23T02:28:00.625Z,87.70
2018-08-23T02:30:42.476Z,87.00
2018-08-23T02:33:12.438Z,86.90
2018-08-23T02:35:51.567Z,87.10
2018-08-23T02:38:20.610Z,87.70
2018-08-23T02:40:49.644Z,89.30
2018-08-23T02:43:18.657Z,88.60
2018-08-23T02:45:52.788Z,90.00
2018-08-23T02:48:22.723Z,89.10
2018-08-23T02:50:52.402Z,88.10
2018-08-23T02:53:37.056Z,86.50
2018-08-23T02:56:13.217Z,86.50
2018-08-23T02:58:56.999Z,86.70
2018-08-23T03:01:27.245Z,86.30
2018-08-23T03:04:06.905Z,84.90
2018-08-23T03:07:12.685Z,85.70
2018-08-23T03:09:43.363Z,85.90
2018-08-23T03:12:13.999Z,86.80
2018-08-23T03:14:43.037Z,86.80
2018-08-23T03:17:15.589Z,88.10
2018-08-23T03:20:14.497Z,87.80
2018-08-23T03:22:44.746Z,89.70
2018-08-23T03:25:16.981Z,87.40
2018-08-23T03:27:46.017Z,87.70
2018-08-23T03:30:16.287Z,85.70
2018-08-23T03:32:45.505Z,87.00
2018-08-23T03:35:14.610Z,86.60
2018-08-23T03:37:43.738Z,88.00
2018-08-23T03:40:13.942Z,87.60
2018-08-23T03:42:42.917Z,89.20
2018-08-23T03:45:17.485Z,88.50
2018-08-23T03:47:50.522Z,88.10
2018-08-23T03:50:19.801Z,87.70
2018-08-23T03:52:50.041Z,88.80
2018-08-23T03:55:21.371Z,88.50
2018-08-23T03:57:52.329Z,88.10
2018-08-23T04:00:26.911Z,87.90
2018-08-23T04:02:56.387Z,87.00
2018-08-23T04:05:25.452Z,86.60
2018-08-23T04:07:54.574Z,88.90
2018-08-23T04:10:23.904Z,89.00
2018-08-23T04:12:52.908Z,86.70
2018-08-23T04:15:23.871Z,88.10
2018-08-23T04:17:53.055Z,89.10
2018-08-23T04:20:22.089Z,88.10
2018-08-23T04:22:51.235Z,88.20
2018-08-23T04:25:20.159Z,88.80
2018-08-23T04:27:49.294Z,89.90
2018-08-23T04:30:18.347Z,90.10
2018-08-23T04:32:48.691Z,90.00
2018-08-23T04:35:34.354Z,89.80
2018-08-23T04:38:03.660Z,90.20
2018-08-23T04:40:32.706Z,90.00
2018-08-23T04:43:01.766Z,90.10
2018-08-23T04:45:33.322Z,90.30
2018-08-23T04:48:09.534Z,90.50
2018-08-23T04:50:39.702Z,90.00
2018-08-23T04:53:08.898Z,90.30
2018-08-23T04:55:37.978Z,90.30
2018-08-23T04:58:07.192Z,90.00
2018-08-23T05:00:36.216Z,90.20
2018-08-23T05:03:05.638Z,90.50
2018-08-23T05:05:34.758Z,90.30
2018-08-23T05:08:04.189Z,91.00
2018-08-23T05:10:33.465Z,91.30
2018-08-23T05:13:02.977Z,91.00
2018-08-23T05:15:32.106Z,91.00
2018-08-23T05:18:01.232Z,91.20
2018-08-23T05:20:30.280Z,91.20
2018-08-23T05:23:03.676Z,90.80
2018-08-23T05:25:32.685Z,90.50
2018-08-23T05:28:15.092Z,91.00
2018-08-23T05:30:45.577Z,90.90
2018-08-23T05:33:17.721Z,91.10
2018-08-23T05:35:46.937Z,90.60
2018-08-23T05:38:16.697Z,91.20
2018-08-23T05:40:51.691Z,91.30
2018-08-23T05:43:21.433Z,91.10
2018-08-23T05:45:51.935Z,91.70
2018-08-23T05:51:14.485Z,91.00
2018-08-23T05:53:48.783Z,91.30
2018-08-23T05:56:18.966Z,91.20
2018-08-23T05:58:48.237Z,91.30
2018-08-23T06:01:17.417Z,92.00
2018-08-23T06:03:46.545Z,91.90
2018-08-23T06:06:15.673Z,92.30
2018-08-23T06:08:49.461Z,92.10
2018-08-23T06:11:18.561Z,92.50
2018-08-23T06:13:47.575Z,92.40
2018-08-23T06:16:17.150Z,92.40
2018-08-23T06:18:47.565Z,92.20
2018-08-23T06:21:17.001Z,92.10
2018-08-23T06:23:53.872Z,92.50
2018-08-23T06:26:38.419Z,92.90
2018-08-23T06:29:07.984Z,93.00
2018-08-23T06:31:45.581Z,93.10
2018-08-23T06:34:14.654Z,93.30
2018-08-23T06:36:45.506Z,93.00
2018-08-23T06:39:14.653Z,92.70
2018-08-23T06:41:43.845Z,93.10
2018-08-23T06:44:12.871Z,92.70
2018-08-23T06:46:42.026Z,92.80
2018-08-23T06:49:11.027Z,92.80
2018-08-23T06:51:40.246Z,92.20
2018-08-23T06:54:09.335Z,92.40
2018-08-23T06:56:38.813Z,92.30
2018-08-23T06:59:08.850Z,92.60
2018-08-23T07:01:43.225Z,92.70
2018-08-23T07:04:13.698Z,92.60
2018-08-23T07:06:43.912Z,92.80
2018-08-23T07:09:14.622Z,92.80
2018-08-23T07:14:10.488Z,92.50
2018-08-23T07:16:40.534Z,92.70
2018-08-23T07:19:24.440Z,92.90
2018-08-23T07:21:54.472Z,92.50
2018-08-23T07:24:41.202Z,92.70
2018-08-23T07:27:11.366Z,92.70
2018-08-23T07:29:41.572Z,92.40
2018-08-23T07:32:18.706Z,92.90
2018-08-23T07:34:59.804Z,92.60
2018-08-23T07:37:29.277Z,92.50
2018-08-23T07:40:03.804Z,92.70
2018-08-23T07:42:33.748Z,92.80
2018-08-23T07:45:03.393Z,93.00
2018-08-23T07:47:33.264Z,92.80
2018-08-23T07:50:03.035Z,92.80
2018-08-23T07:52:33.122Z,92.60
2018-08-23T07:55:06.182Z,92.40
2018-08-23T07:57:36.366Z,92.80
2018-08-23T08:00:23.726Z,92.50
2018-08-23T08:02:52.906Z,92.40
2018-08-23T08:05:22.504Z,92.60
2018-08-23T08:07:51.598Z,92.80
2018-08-23T08:10:20.898Z,92.70
2018-08-23T08:12:50.937Z,92.70
2018-08-23T08:15:20.235Z,92.40
2018-08-23T08:17:49.156Z,92.50
2018-08-23T08:20:18.230Z,92.60
2018-08-23T08:22:47.292Z,92.40
2018-08-23T08:25:17.618Z,92.30
2018-08-23T08:27:47.156Z,92.20
2018-08-23T08:30:19.378Z,92.30
2018-08-23T08:32:48.530Z,92.30
2018-08-23T08:35:19.828Z,92.30
2018-08-23T08:37:49.965Z,91.90
2018-08-23T08:40:23.568Z,92.30
2018-08-23T08:42:52.620Z,92.60
2018-08-23T08:45:22.292Z,92.70
2018-08-23T08:47:51.371Z,92.80
2018-08-23T08:50:20.543Z,92.60
2018-08-23T08:52:49.522Z,92.20
2018-08-23T08:55:18.551Z,92.40
2018-08-23T08:57:47.922Z,92.60
2018-08-23T09:00:17.049Z,92.70
2018-08-23T09:02:46.209Z,92.60
2018-08-23T09:05:15.234Z,92.30
2018-08-23T09:07:44.866Z,92.20
2018-08-23T09:10:13.964Z,92.00
2018-08-23T09:12:47.854Z,92.40
2018-08-23T09:15:16.846Z,92.00
2018-08-23T09:17:46.742Z,92.10
2018-08-23T09:20:17.089Z,92.50
2018-08-23T09:22:49.890Z,92.50
2018-08-23T09:25:31.982Z,92.50
2018-08-23T09:28:01.080Z,92.80
2018-08-23T09:30:31.475Z,92.70
2018-08-23T09:33:06.014Z,92.70
2018-08-23T09:35:35.524Z,92.70
2018-08-23T09:38:10.471Z,92.50
2018-08-23T09:40:39.686Z,92.50
2018-08-23T09:43:08.758Z,92.50
2018-08-23T09:45:38.626Z,92.50
2018-08-23T09:48:07.900Z,92.40
2018-08-23T09:50:36.981Z,92.40
2018-08-23T09:53:21.957Z,92.30
2018-08-23T09:55:52.020Z,92.20
2018-08-23T09:58:26.625Z,92.20
2018-08-23T10:01:01.093Z,92.10
2018-08-23T10:03:35.853Z,92.10
2018-08-23T10:06:10.213Z,92.20
2018-08-23T10:08:44.626Z,92.00
2018-08-23T10:11:19.684Z,92.00
2018-08-23T10:13:54.191Z,92.10
2018-08-23T10:16:28.661Z,91.90
2018-08-23T10:18:59.629Z,91.80
2018-08-23T10:21:33.933Z,91.70
2018-08-23T10:24:15.796Z,91.80
2018-08-23T10:26:45.401Z,91.70
2018-08-23T10:29:14.445Z,91.60
2018-08-23T10:31:43.516Z,91.70
2018-08-23T10:34:12.967Z,91.70
2018-08-23T10:36:42.120Z,91.70
2018-08-23T10:39:12.936Z,91.50
2018-08-23T10:41:42.045Z,91.50
2018-08-23T10:44:11.068Z,91.20
2018-08-23T10:46:45.550Z,91.30
2018-08-23T10:49:14.610Z,91.40
2018-08-23T10:51:43.780Z,91.20
2018-08-23T10:54:13.263Z,91.20
2018-08-23T10:56:42.304Z,91.10
2018-08-23T10:59:11.481Z,90.90
2018-08-23T11:01:40.550Z,90.70
2018-08-23T11:04:10.399Z,90.60
2018-08-23T11:06:44.770Z,90.80
2018-08-23T11:09:19.160Z,91.10
2018-08-23T11:11:48.330Z,91.00
2018-08-23T11:14:22.715Z,90.90
2018-08-23T11:16:57.190Z,90.90
2018-08-23T11:19:31.615Z,89.50
2018-08-23T11:22:00.744Z,88.70
2018-08-23T11:24:29.794Z,90.40
2018-08-23T11:26:58.838Z,88.90
2018-08-23T11:29:27.880Z,87.80
2018-08-23T11:31:56.996Z,88.20
2018-08-23T11:34:26.077Z,86.50
2018-08-23T11:36:55.175Z,88.70
2018-08-23T11:39:24.412Z,85.90
2018-08-23T11:41:53.501Z,86.90
2018-08-23T11:44:22.577Z,86.20
2018-08-23T11:46:51.813Z,85.90
2018-08-23T11:49:20.824Z,84.40
2018-08-23T11:51:49.850Z,85.60
2018-08-23T11:54:19.079Z,85.00
2018-08-23T11:56:48.082Z,83.40
2018-08-23T11:59:17.127Z,82.80
2018-08-23T12:01:46.170Z,82.70
2018-08-23T12:04:15.199Z,81.50
2018-08-23T12:06:44.192Z,84.80
2018-08-23T12:09:13.420Z,85.40
2018-08-23T12:11:42.524Z,81.90
2018-08-23T12:14:11.623Z,83.80
2018-08-23T12:16:40.756Z,82.20
2018-08-23T12:19:09.840Z,83.20
2018-08-23T12:21:40.017Z,83.20
2018-08-23T12:24:09.157Z,81.30
2018-08-23T12:26:38.261Z,84.20
2018-08-23T12:29:08.248Z,81.80
2018-08-23T12:31:37.758Z,85.00
2018-08-23T12:34:08.394Z,81.40
2018-08-23T12:36:42.861Z,83.30
2018-08-23T12:39:17.325Z,80.40
2018-08-23T12:42:50.785Z,79.60
2018-08-23T12:45:20.061Z,78.70
2018-08-23T12:47:49.696Z,80.40
2018-08-23T12:50:18.715Z,78.60
2018-08-23T12:52:47.884Z,80.60
2018-08-23T12:55:16.911Z,80.10
2018-08-23T12:57:46.007Z,78.60
2018-08-23T13:00:15.245Z,78.10
2018-08-23T13:02:44.589Z,80.70
2018-08-23T13:05:13.538Z,79.70
2018-08-23T13:07:42.625Z,78.50
2018-08-23T13:10:11.688Z,78.50
2018-08-23T13:12:40.805Z,79.00
2018-08-23T13:15:09.892Z,78.90
2018-08-23T13:17:39.065Z,78.30
2018-08-23T13:20:08.103Z,79.50
2018-08-23T13:22:39.316Z,78.10
2018-08-23T13:25:10.457Z,79.70
2018-08-23T13:27:39.788Z,78.50
2018-08-23T13:30:08.868Z,78.50
2018-08-23T13:32:37.952Z,78.50
2018-08-23T13:35:07.318Z,77.70
2018-08-23T13:37:36.345Z,77.50
2018-08-23T13:40:05.597Z,77.20
2018-08-23T13:42:34.684Z,75.90
2018-08-23T13:45:03.722Z,77.50
2018-08-23T13:47:32.754Z,76.90
2018-08-23T13:50:01.811Z,76.00
2018-08-23T13:52:30.885Z,75.50
2018-08-23T13:54:59.960Z,74.60
2018-08-23T13:57:29.033Z,76.00
2018-08-23T13:59:58.585Z,76.70
2018-08-23T14:02:27.731Z,76.60
2018-08-23T14:04:57.061Z,77.30
2018-08-23T14:07:26.223Z,74.50
2018-08-23T14:09:55.307Z,76.20
2018-08-23T14:12:24.505Z,76.20
2018-08-23T14:14:55.653Z,75.40
2018-08-23T14:17:24.965Z,74.40
2018-08-23T14:19:54.577Z,73.80
2018-08-23T14:22:23.719Z,74.00
2018-08-23T14:24:52.792Z,72.10
2018-08-23T14:27:21.829Z,74.20
2018-08-23T14:29:50.975Z,74.30
2018-08-23T14:32:20.050Z,73.60
2018-08-23T14:34:49.155Z,73.30
2018-08-23T14:38:47.551Z,74.20
2018-08-23T14:41:16.979Z,73.70
2018-08-23T14:43:46.096Z,74.40
2018-08-23T14:46:20.532Z,75.90
2018-08-23T14:48:49.550Z,74.70
2018-08-23T14:51:19.442Z,75.40
2018-08-23T14:53:48.872Z,73.30
2018-08-23T14:56:23.396Z,74.20
2018-08-23T14:58:52.586Z,72.10
2018-08-23T15:01:21.714Z,73.90
2018-08-23T15:03:50.788Z,71.50
2018-08-23T15:06:19.964Z,72.00
2018-08-23T15:08:48.958Z,72.10
2018-08-23T15:11:18.053Z,72.40
2018-08-23T15:13:47.178Z,71.50
2018-08-23T15:16:16.361Z,71.00
2018-08-23T15:18:45.473Z,71.90
2018-08-23T15:21:14.555Z,72.10
2018-08-23T15:23:43.678Z,71.60
2018-08-23T15:26:12.846Z,72.20
2018-08-23T15:28:41.874Z,71.70
2018-08-23T15:31:10.969Z,73.30
2018-08-23T15:33:40.057Z,72.10
2018-08-23T15:36:09.161Z,70.10
2018-08-23T15:38:38.226Z,71.10
2018-08-23T15:41:07.548Z,71.30
2018-08-23T15:43:36.662Z,72.20
2018-08-23T15:46:05.749Z,72.50
2018-08-23T15:48:34.912Z,70.90
2018-08-23T15:51:04.058Z,70.70
2018-08-23T15:53:33.090Z,70.90
2018-08-23T15:56:02.397Z,70.10
2018-08-23T15:58:31.585Z,71.20
2018-08-23T16:01:00.682Z,70.20
2018-08-23T16:03:29.805Z,71.10
2018-08-23T16:05:58.915Z,69.90
2018-08-23T16:08:28.028Z,70.10
2018-08-23T16:10:57.137Z,70.70
2018-08-23T16:13:26.199Z,69.60
2018-08-23T16:17:01.714Z,70.00
2018-08-23T16:19:36.061Z,70.50
2018-08-23T16:22:05.246Z,70.70
2018-08-23T16:24:34.322Z,70.90
2018-08-23T16:27:04.645Z,72.00
2018-08-23T16:29:33.678Z,70.70
2018-08-23T16:32:03.013Z,71.30
2018-08-23T16:34:32.073Z,70.70
2018-08-23T16:37:01.254Z,71.50
2018-08-23T16:39:30.350Z,70.90
2018-08-23T16:41:59.446Z,71.20
2018-08-23T16:44:28.644Z,71.40
2018-08-23T16:46:58.122Z,72.00
2018-08-23T16:49:27.112Z,72.50
2018-08-23T16:51:56.245Z,71.50
2018-08-23T16:54:25.352Z,71.80
2018-08-23T16:56:54.533Z,71.70
2018-08-23T16:59:23.603Z,71.80
2018-08-23T17:01:52.725Z,71.80
2018-08-23T17:04:26.083Z,71.60
2018-08-23T17:06:55.574Z,72.00
2018-08-23T17:09:24.653Z,72.20
2018-08-23T17:11:53.724Z,72.60
2018-08-23T17:14:22.808Z,72.10
2018-08-23T17:16:57.245Z,72.40
2018-08-23T17:19:26.310Z,72.20
2018-08-23T17:21:55.413Z,72.60
2018-08-23T17:24:24.761Z,72.90
2018-08-23T17:26:53.945Z,72.80
2018-08-23T17:29:23.229Z,72.90
2018-08-23T17:31:52.463Z,73.00
2018-08-23T17:34:21.559Z,73.20
2018-08-23T17:36:50.720Z,73.00
2018-08-23T17:39:19.796Z,73.00
2018-08-23T17:41:48.917Z,73.20
2018-08-23T17:44:17.970Z,73.50
2018-08-23T17:46:47.094Z,73.50
2018-08-23T17:49:16.168Z,73.60
2018-08-23T17:51:45.288Z,73.60
2018-08-23T17:54:14.432Z,73.70
2018-08-23T17:56:44.505Z,73.70
2018-08-23T17:59:13.600Z,73.80
2018-08-23T18:01:42.667Z,74.10
2018-08-23T18:04:11.794Z,74.20
2018-08-23T18:06:41.008Z,74.30
2018-08-23T18:09:11.742Z,74.30
2018-08-23T18:11:41.028Z,74.50
2018-08-23T18:14:10.156Z,74.60
2018-08-23T18:16:44.545Z,74.80
2018-08-23T18:19:13.695Z,74.70
2018-08-23T18:21:43.018Z,75.00
2018-08-23T18:24:12.132Z,75.20
2018-08-23T18:26:41.264Z,75.10
2018-08-23T18:29:10.298Z,75.00
2018-08-23T18:31:39.269Z,75.60
2018-08-23T18:34:08.336Z,75.50
2018-08-23T18:36:37.612Z,75.60
2018-08-23T18:39:08.633Z,75.60
2018-08-23T18:41:37.697Z,75.60
2018-08-23T18:44:07.258Z,75.90
2018-08-23T18:46:36.454Z,76.60
2018-08-23T18:49:05.548Z,76.30
2018-08-23T18:51:34.610Z,76.00
2018-08-23T18:54:03.769Z,76.10
2018-08-23T18:56:32.756Z,76.40
2018-08-23T18:59:01.932Z,76.10
2018-08-23T19:01:31.011Z,76.40
2018-08-23T19:04:00.012Z,76.50
2018-08-23T19:06:37.327Z,76.60
2018-08-23T19:09:11.697Z,77.00
2018-08-23T19:11:40.751Z,77.30
2018-08-23T19:14:09.807Z,76.70
2018-08-23T19:16:44.273Z,76.60
2018-08-23T19:19:13.334Z,76.50
2018-08-23T19:21:42.457Z,76.70
2018-08-23T19:24:11.546Z,76.80
2018-08-23T19:26:40.543Z,76.50
2018-08-23T19:29:10.676Z,76.70
2018-08-23T19:31:39.767Z,77.00
2018-08-23T19:34:08.825Z,77.10
2018-08-23T19:36:37.909Z,76.90
2018-08-23T19:39:09.889Z,77.20
2018-08-23T19:41:38.969Z,77.30
2018-08-23T19:44:08.144Z,77.30
2018-08-23T19:46:42.602Z,77.20
2018-08-23T19:49:17.256Z,78.00
2018-08-23T19:51:46.304Z,77.20
2018-08-23T19:54:15.299Z,78.40
2018-08-23T19:56:44.449Z,77.90
2018-08-23T19:59:13.563Z,77.80
2018-08-23T20:01:42.593Z,78.30
2018-08-23T20:05:14.901Z,78.10
2018-08-23T20:07:43.906Z,78.20
2018-08-23T20:10:13.000Z,78.50
2018-08-23T20:12:42.082Z,78.30
2018-08-23T20:15:11.147Z,78.50
2018-08-23T20:17:40.342Z,79.20
2018-08-23T20:20:09.455Z,78.60
2018-08-23T20:22:38.584Z,78.70
2018-08-23T20:25:09.407Z,78.50
2018-08-23T20:27:38.504Z,79.20
2018-08-23T20:30:07.600Z,79.20
2018-08-23T20:32:36.672Z,79.20
2018-08-23T20:35:05.950Z,79.50
2018-08-23T20:37:34.981Z,82.10
2018-08-23T20:40:04.768Z,86.90
2018-08-23T20:42:33.767Z,89.00
2018-08-23T20:45:02.901Z,90.40
2018-08-23T20:47:31.950Z,90.80
2018-08-23T20:50:01.094Z,90.50
2018-08-23T20:52:30.263Z,90.30
2018-08-23T20:54:59.464Z,88.50
2018-08-23T20:57:28.556Z,89.40
2018-08-23T20:59:57.674Z,87.10
2018-08-23T21:02:26.851Z,89.90
2018-08-23T21:04:55.985Z,87.60
2018-08-23T21:07:25.046Z,86.60
2018-08-23T21:09:54.211Z,87.80
2018-08-23T21:12:23.248Z,89.20
2018-08-23T21:14:52.328Z,89.90
2018-08-23T21:17:21.350Z,88.30
2018-08-23T21:19:50.448Z,87.40
2018-08-23T21:22:19.514Z,87.30
2018-08-23T21:24:48.594Z,86.30
2018-08-23T21:27:17.710Z,87.70
2018-08-23T21:29:46.840Z,87.70
2018-08-23T21:32:15.896Z,87.80
2018-08-23T21:34:44.980Z,89.70
2018-08-23T21:37:14.152Z,87.60
2018-08-23T21:39:43.284Z,88.40
2018-08-23T21:42:12.379Z,89.30
2018-08-23T21:44:41.364Z,87.90
2018-08-23T21:47:10.386Z,88.10
2018-08-23T21:49:39.689Z,88.30
2018-08-23T21:52:08.755Z,90.40
2018-08-23T21:54:37.841Z,90.40
2018-08-23T21:57:06.999Z,91.20
2018-08-23T21:59:36.133Z,90.80
2018-08-23T22:02:10.555Z,90.00
2018-08-23T22:04:44.954Z,91.40
2018-08-23T22:07:13.984Z,91.30
2018-08-23T22:09:44.831Z,91.10
2018-08-23T22:12:13.842Z,91.20
2018-08-23T22:14:42.892Z,91.40
2018-08-23T22:17:12.003Z,91.40
2018-08-23T22:19:41.167Z,91.60
2018-08-23T22:22:10.577Z,92.10
2018-08-23T22:24:39.579Z,92.60
2018-08-23T22:27:08.999Z,92.50
2018-08-23T22:29:38.300Z,93.00
2018-08-23T22:32:08.410Z,93.40
2018-08-23T22:34:37.556Z,93.60
2018-08-23T22:37:06.609Z,92.20
2018-08-23T22:39:35.797Z,92.40
2018-08-23T22:42:04.796Z,92.50
2018-08-23T22:44:33.897Z,92.30
2018-08-23T22:47:02.958Z,92.10
2018-08-23T22:49:32.075Z,93.80
2018-08-23T22:52:01.186Z,92.50
2018-08-23T22:54:30.359Z,93.30
2018-08-23T22:56:59.370Z,92.80
2018-08-23T22:59:28.504Z,92.90
2018-08-23T23:01:57.560Z,92.20
2018-08-23T23:04:26.758Z,92.70
2018-08-23T23:06:56.276Z,91.70
2018-08-23T23:09:25.469Z,92.90
2018-08-23T23:11:54.591Z,93.10
2018-08-23T23:14:23.654Z,92.30
2018-08-23T23:16:55.596Z,92.00
2018-08-23T23:19:25.617Z,92.40
2018-08-23T23:21:54.636Z,91.40
2018-08-23T23:24:28.948Z,92.10
2018-08-23T23:26:58.047Z,92.10
2018-08-23T23:29:27.128Z,91.80
2018-08-23T23:31:56.234Z,93.10
2018-08-23T23:34:25.390Z,92.30
2018-08-23T23:36:54.398Z,91.50
2018-08-23T23:39:23.445Z,91.30
2018-08-23T23:41:52.564Z,91.90
2018-08-23T23:44:21.605Z,91.90
2018-08-23T23:46:50.709Z,92.10
2018-08-23T23:49:19.822Z,91.60
2018-08-23T23:51:49.004Z,93.30
2018-08-23T23:54:18.201Z,91.50
2018-08-23T23:56:47.280Z,92.20
2018-08-23T23:59:16.493Z,92.10
